Time;durP1;ratioP1;P1;durP2;ratioP2;P2;SDS_P1;SDS_P2;PMS_P1;PMS_P2;Temp;Humidity;BMP_temperature;BMP_pressure;BME280_temperature;BME280_humidity;BME280_pressure;Samples;Min_cycle;Max_cycle;Signal;HPM_P1;HPM_P2
2023/06/08 00:01:30;;;;;;;13.18;7.78;;;21.70;86.70;;;;;;5032756;28;20390;-68
2023/06/08 00:03:56;;;;;;;13.52;8.13;;;21.60;87.00;;;;;;5032775;28;20013;-68
2023/06/08 00:06:23;;;;;;;14.48;7.55;;;21.70;87.10;;;;;;5032947;28;20040;-68
2023/06/08 00:08:49;;;;;;;13.68;7.97;;;21.60;87.20;;;;;;5032322;28;20044;-68
2023/06/08 00:11:15;;;;;;;16.33;7.88;;;21.70;87.20;;;;;;5031575;28;20037;-68
2023/06/08 00:13:40;;;;;;;11.73;7.22;;;21.60;87.30;;;;;;5032800;28;20382;-68
2023/06/08 00:16:06;;;;;;;16.27;8.20;;;21.60;87.50;;;;;;5032588;28;20048;-67
2023/06/08 00:18:31;;;;;;;15.73;7.72;;;21.50;87.50;;;;;;5031303;28;20071;-68
2023/06/08 00:20:58;;;;;;;14.65;7.55;;;21.50;87.70;;;;;;5032829;28;20041;-68
2023/06/08 00:23:24;;;;;;;12.48;8.05;;;21.50;87.70;;;;;;5032392;28;20017;-68
2023/06/08 00:25:49;;;;;;;13.40;8.15;;;21.50;87.70;;;;;;5032631;28;20030;-68
2023/06/08 00:28:15;;;;;;;13.05;7.60;;;21.50;87.70;;;;;;5032520;28;20025;-68
2023/06/08 00:30:41;;;;;;;13.65;8.13;;;21.40;87.70;;;;;;5032246;28;20037;-67
2023/06/08 00:33:07;;;;;;;13.75;8.07;;;21.40;88.40;;;;;;5032632;28;20078;-68
2023/06/08 00:35:32;;;;;;;12.73;8.57;;;21.30;87.90;;;;;;5032684;28;20069;-68
2023/06/08 00:37:58;;;;;;;15.05;8.20;;;21.30;87.90;;;;;;5033363;28;20493;-68
2023/06/08 00:40:23;;;;;;;15.73;8.13;;;21.40;88.10;;;;;;5036151;28;20025;-68
2023/06/08 00:42:49;;;;;;;14.90;8.07;;;21.30;88.00;;;;;;5036059;28;20084;-68
2023/06/08 00:45:15;;;;;;;18.88;8.50;;;21.30;88.10;;;;;;5035986;28;20025;-68
2023/06/08 00:47:41;;;;;;;14.75;8.05;;;21.30;88.00;;;;;;5035994;28;20036;-68
2023/06/08 00:50:08;;;;;;;13.50;7.45;;;21.20;88.20;;;;;;5035888;28;20029;-68
2023/06/08 00:52:35;;;;;;;14.23;7.70;;;21.20;88.30;;;;;;5036022;28;20118;-68
2023/06/08 00:55:02;;;;;;;12.75;7.95;;;21.20;89.10;;;;;;5035848;28;20022;-68
2023/06/08 00:57:32;;;;;;;15.27;8.48;;;21.20;88.40;;;;;;5035734;28;20021;-68
2023/06/08 01:00:04;;;;;;;13.52;7.50;;;21.20;88.30;;;;;;5035623;28;20036;-67
2023/06/08 01:02:31;;;;;;;16.13;7.40;;;21.10;88.30;;;;;;5034554;28;20013;-67
2023/06/08 01:04:56;;;;;;;11.75;7.35;;;21.10;88.50;;;;;;5035399;28;20109;-68
2023/06/08 01:07:34;;;;;;;12.55;7.72;;;21.00;88.70;;;;;;5035840;28;20049;-67
2023/06/08 01:10:08;;;;;;;13.25;7.28;;;21.00;88.70;;;;;;5035560;28;20025;-69
2023/06/08 01:12:41;;;;;;;16.52;7.93;;;21.00;88.70;;;;;;5035858;28;20021;-68
2023/06/08 01:15:23;;;;;;;16.42;7.70;;;21.00;88.60;;;;;;5035403;28;20018;-68
2023/06/08 01:17:53;;;;;;;14.30;8.18;;;21.00;88.70;;;;;;5035381;28;20029;-68
2023/06/08 01:20:36;;;;;;;16.90;8.55;;;21.00;88.70;;;;;;5035099;28;20083;-68
2023/06/08 01:23:12;;;;;;;13.63;7.07;;;20.90;88.90;;;;;;5035211;28;20025;-69
2023/06/08 01:25:39;;;;;;;16.63;7.82;;;20.90;88.80;;;;;;5035390;28;20036;-68
2023/06/08 01:28:12;;;;;;;17.20;8.60;;;20.90;88.70;;;;;;5035161;28;20063;-68
2023/06/08 01:30:40;;;;;;;11.50;7.30;;;20.90;88.70;;;;;;5034840;28;20121;-68
2023/06/08 01:33:06;;;;;;;15.95;8.38;;;20.80;88.90;;;;;;5035103;28;20483;-67
2023/06/08 01:35:31;;;;;;;12.68;8.23;;;20.80;89.00;;;;;;5034761;28;20044;-68
2023/06/08 01:38:08;;;;;;;11.25;7.13;;;20.80;89.10;;;;;;5033863;28;20470;-67
2023/06/08 01:40:37;;;;;;;13.18;7.78;;;20.80;89.10;;;;;;5035052;28;20017;-68
2023/06/08 01:43:07;;;;;;;15.13;8.10;;;20.80;89.10;;;;;;5034944;28;20022;-67
2023/06/08 01:45:38;;;;;;;14.30;7.82;;;20.70;89.20;;;;;;5034813;28;20025;-67
2023/06/08 01:48:06;;;;;;;16.13;8.18;;;20.70;89.40;;;;;;5034900;28;20033;-67
2023/06/08 01:50:33;;;;;;;13.40;8.38;;;20.60;89.40;;;;;;5034470;28;20114;-67
2023/06/08 01:52:59;;;;;;;19.75;8.63;;;20.60;89.60;;;;;;5034781;28;20029;-67
2023/06/08 01:55:27;;;;;;;12.88;8.80;;;20.60;89.60;;;;;;5034726;28;20028;-67
2023/06/08 01:57:53;;;;;;;17.00;8.30;;;20.60;89.60;;;;;;5034767;28;20062;-67
2023/06/08 02:00:20;;;;;;;12.90;8.48;;;20.60;89.60;;;;;;5034713;28;20029;-67
2023/06/08 02:02:46;;;;;;;11.75;8.93;;;20.60;89.70;;;;;;5034347;28;20029;-67
2023/06/08 02:05:13;;;;;;;13.43;8.20;;;20.50;89.70;;;;;;5034440;28;20040;-68
2023/06/08 02:07:40;;;;;;;15.93;8.57;;;20.50;89.80;;;;;;5034257;28;20029;-67
2023/06/08 02:10:07;;;;;;;12.52;8.73;;;20.50;89.90;;;;;;5032568;28;20028;-67
2023/06/08 02:12:33;;;;;;;13.05;8.50;;;20.50;90.00;;;;;;5034034;28;20029;-71
2023/06/08 02:14:59;;;;;;;12.27;8.63;;;20.50;90.00;;;;;;5034446;28;20095;-68
2023/06/08 02:17:29;;;;;;;12.32;8.32;;;20.40;90.00;;;;;;5033883;28;20536;-67
2023/06/08 02:19:55;;;;;;;17.98;9.52;;;20.40;90.00;;;;;;5034247;28;20030;-67
2023/06/08 02:22:21;;;;;;;11.43;8.88;;;20.40;90.00;;;;;;5034101;28;20467;-67
2023/06/08 02:24:48;;;;;;;15.32;8.40;;;20.40;90.10;;;;;;5034221;28;20024;-67
2023/06/08 02:27:14;;;;;;;15.75;8.93;;;20.40;90.10;;;;;;5033928;28;20033;-67
2023/06/08 02:29:40;;;;;;;14.05;8.88;;;20.30;90.10;;;;;;5033993;28;20021;-67
2023/06/08 02:32:06;;;;;;;12.73;9.18;;;20.30;90.10;;;;;;5033617;28;20036;-68
2023/06/08 02:34:32;;;;;;;16.15;9.27;;;20.30;90.20;;;;;;5034066;28;20025;-68
2023/06/08 02:36:58;;;;;;;15.82;8.77;;;20.30;90.20;;;;;;5033928;28;20017;-68
2023/06/08 02:39:23;;;;;;;16.38;9.73;;;20.30;90.20;;;;;;5033952;28;20026;-67
2023/06/08 02:41:49;;;;;;;15.52;9.52;;;20.20;90.20;;;;;;5033746;28;20021;-68
2023/06/08 02:44:15;;;;;;;15.50;8.60;;;20.20;90.20;;;;;;5033814;28;20017;-67
2023/06/08 02:46:40;;;;;;;15.30;9.18;;;20.20;90.20;;;;;;5032120;28;20407;-69
2023/06/08 02:49:06;;;;;;;16.02;9.20;;;20.20;90.30;;;;;;5033732;28;20108;-68
2023/06/08 02:51:31;;;;;;;12.30;8.48;;;20.10;90.30;;;;;;5033657;28;20041;-67
2023/06/08 02:53:57;;;;;;;14.60;9.30;;;20.10;90.40;;;;;;5033749;28;20067;-67
2023/06/08 02:56:25;;;;;;;15.77;9.57;;;20.10;90.30;;;;;;5033383;28;20021;-68
2023/06/08 02:58:51;;;;;;;18.55;9.70;;;20.00;90.40;;;;;;5033676;28;20045;-67
2023/06/08 03:01:17;;;;;;;13.35;9.52;;;20.00;90.40;;;;;;5032995;28;20029;-67
2023/06/08 03:03:44;;;;;;;17.13;9.60;;;20.00;90.40;;;;;;5033544;28;20029;-68
2023/06/08 03:06:12;;;;;;;16.77;9.65;;;20.00;90.40;;;;;;5033460;28;20033;-68
2023/06/08 03:08:38;;;;;;;16.05;9.95;;;20.00;90.50;;;;;;5033311;28;20028;-68
2023/06/08 03:11:04;;;;;;;16.00;10.05;;;19.90;90.60;;;;;;5033365;28;20033;-68
2023/06/08 03:13:30;;;;;;;14.02;9.48;;;19.90;90.50;;;;;;5033366;28;20379;-68
2023/06/08 03:15:55;;;;;;;14.77;9.40;;;19.90;90.60;;;;;;5033166;28;20076;-68
2023/06/08 03:18:22;;;;;;;13.82;10.20;;;19.90;90.60;;;;;;5033173;28;20021;-68
2023/06/08 03:20:51;;;;;;;13.93;9.52;;;19.80;90.60;;;;;;5033297;28;20021;-67
2023/06/08 03:23:19;;;;;;;15.90;9.80;;;19.90;90.60;;;;;;5033081;28;20384;-67
2023/06/08 03:25:49;;;;;;;18.40;10.25;;;19.80;90.60;;;;;;5033067;28;20071;-67
2023/06/08 03:28:15;;;;;;;13.00;9.43;;;19.90;90.70;;;;;;5033089;28;20029;-67
2023/06/08 03:30:41;;;;;;;13.50;9.50;;;19.80;90.70;;;;;;5032822;28;20080;-67
2023/06/08 03:33:07;;;;;;;17.85;9.90;;;19.80;90.70;;;;;;5033070;28;20482;-67
2023/06/08 03:35:32;;;;;;;12.45;9.43;;;19.80;90.70;;;;;;5033091;28;20029;-67
2023/06/08 03:37:58;;;;;;;13.82;9.50;;;19.80;90.70;;;;;;5033036;28;20529;-67
2023/06/08 03:40:23;;;;;;;14.38;9.32;;;19.80;90.70;;;;;;5032948;28;20026;-67
2023/06/08 03:42:50;;;;;;;14.02;9.45;;;19.80;90.80;;;;;;5033021;28;20479;-67
2023/06/08 03:45:17;;;;;;;15.18;9.73;;;19.70;90.80;;;;;;5032807;28;20101;-67
2023/06/08 03:47:43;;;;;;;15.98;9.75;;;19.70;90.80;;;;;;5032956;28;20029;-67
2023/06/08 03:50:11;;;;;;;16.30;9.88;;;19.70;90.80;;;;;;5033004;28;20025;-68
2023/06/08 03:52:38;;;;;;;14.52;9.60;;;19.70;90.80;;;;;;5032798;28;20025;-67
2023/06/08 03:55:11;;;;;;;18.38;9.50;;;19.70;90.90;;;;;;5032726;28;20021;-68
2023/06/08 03:57:37;;;;;;;16.60;9.82;;;19.70;90.80;;;;;;5032917;28;20037;-68
2023/06/08 04:00:06;;;;;;;38.63;12.30;;;19.70;90.90;;;;;;5032442;28;20398;-67
2023/06/08 04:02:32;;;;;;;14.38;8.55;;;19.70;90.80;;;;;;5032723;28;20417;-68
2023/06/08 04:04:59;;;;;;;13.35;8.38;;;19.70;90.60;;;;;;5032929;28;20028;-68
2023/06/08 04:07:24;;;;;;;13.63;8.35;;;19.80;90.60;;;;;;5032752;28;20037;-67
2023/06/08 04:09:50;;;;;;;17.08;8.48;;;19.80;90.60;;;;;;5032743;28;20018;-68
2023/06/08 04:12:16;;;;;;;14.93;8.25;;;19.80;90.50;;;;;;5032949;28;20368;-68
2023/06/08 04:14:41;;;;;;;15.07;8.55;;;19.80;90.50;;;;;;5036366;28;20033;-68
2023/06/08 04:17:07;;;;;;;13.85;8.18;;;19.90;90.40;;;;;;5036817;28;20036;-68
2023/06/08 04:19:33;;;;;;;14.88;8.38;;;19.90;90.50;;;;;;5036612;28;20018;-68
2023/06/08 04:21:59;;;;;;;13.60;7.93;;;19.90;90.50;;;;;;5036408;28;20026;-68
2023/06/08 04:24:28;;;;;;;13.05;8.30;;;19.90;90.40;;;;;;5036393;28;20025;-68
2023/06/08 04:26:53;;;;;;;11.82;7.78;;;19.90;90.50;;;;;;5036526;28;20025;-68
2023/06/08 04:29:19;;;;;;;11.60;8.18;;;19.90;90.40;;;;;;5036037;28;20206;-68
2023/06/08 04:31:45;;;;;;;15.57;8.55;;;19.90;90.40;;;;;;5036139;28;20048;-68
2023/06/08 04:34:11;;;;;;;13.30;8.45;;;19.90;90.30;;;;;;5036112;28;20026;-68
2023/06/08 04:36:36;;;;;;;12.88;8.43;;;19.90;90.40;;;;;;5036067;28;20021;-68
2023/06/08 04:39:02;;;;;;;13.20;8.48;;;19.90;90.30;;;;;;5036055;28;20375;-68
2023/06/08 04:41:29;;;;;;;14.18;8.68;;;19.90;90.40;;;;;;5036222;28;20021;-68
2023/06/08 04:44:01;;;;;;;12.60;8.13;;;19.90;90.40;;;;;;5035872;28;20419;-68
2023/06/08 04:46:33;;;;;;;11.63;8.68;;;19.90;90.40;;;;;;5036091;28;20022;-68
2023/06/08 04:48:59;;;;;;;13.52;9.63;;;19.90;90.30;;;;;;5036019;28;20021;-68
2023/06/08 04:51:29;;;;;;;15.15;9.23;;;19.80;90.30;;;;;;5034627;28;20079;-68
2023/06/08 04:53:56;;;;;;;13.85;8.18;;;19.80;90.30;;;;;;5036087;28;20526;-68
2023/06/08 04:56:24;;;;;;;12.45;7.82;;;19.90;90.30;;;;;;5034518;28;20029;-68
2023/06/08 04:58:50;;;;;;;13.88;8.73;;;19.90;90.40;;;;;;5035363;28;20359;-67
2023/06/08 05:01:16;;;;;;;14.60;8.68;;;19.90;90.40;;;;;;5034337;28;20184;-68
2023/06/08 05:03:42;;;;;;;11.48;8.20;;;19.90;90.40;;;;;;5035477;28;20109;-68
2023/06/08 05:06:08;;;;;;;14.50;8.07;;;19.90;90.30;;;;;;5035836;28;20029;-68
2023/06/08 05:08:34;;;;;;;12.30;8.70;;;19.90;90.30;;;;;;5035536;28;20029;-68
2023/06/08 05:11:00;;;;;;;15.32;8.45;;;19.90;90.30;;;;;;5035605;28;20025;-68
2023/06/08 05:13:25;;;;;;;14.82;8.73;;;19.90;90.40;;;;;;5035396;28;20021;-69
2023/06/08 05:15:51;;;;;;;16.83;8.73;;;19.90;90.20;;;;;;5034306;28;20017;-69
2023/06/08 05:18:17;;;;;;;15.05;8.07;;;19.90;90.20;;;;;;5037443;28;20040;-76
2023/06/08 05:20:42;;;;;;;13.70;8.65;;;19.90;90.20;;;;;;5036964;28;20022;-68
2023/06/08 05:23:08;;;;;;;15.50;8.73;;;19.90;90.20;;;;;;5033984;28;20044;-75
2023/06/08 05:25:36;;;;;;;15.43;8.98;;;19.90;90.20;;;;;;5036734;28;20052;-67
2023/06/08 05:28:03;;;;;;;14.32;9.13;;;19.70;90.30;;;;;;5035522;28;20120;-71
2023/06/08 05:30:28;;;;;;;13.93;9.52;;;19.70;90.50;;;;;;5036476;28;20041;-73
2023/06/08 05:32:55;;;;;;;18.00;10.65;;;19.70;90.60;;;;;;5048501;28;20033;-77
2023/06/08 05:35:21;;;;;;;14.88;9.63;;;19.70;90.60;;;;;;5045985;28;20482;-70
2023/06/08 05:37:46;;;;;;;16.30;9.95;;;19.60;90.70;;;;;;5033666;28;20116;-69
2023/06/08 05:40:12;;;;;;;14.40;9.55;;;19.80;90.60;;;;;;5034642;28;20034;-70
2023/06/08 05:42:38;;;;;;;16.38;9.43;;;19.90;90.50;;;;;;5048424;28;20578;-71
2023/06/08 05:45:04;;;;;;;18.85;10.40;;;19.90;90.40;;;;;;5042632;28;20078;-70
2023/06/08 05:47:29;;;;;;;17.52;9.00;;;20.00;90.50;;;;;;5036599;28;20025;-71
2023/06/08 05:49:55;;;;;;;17.38;9.98;;;20.00;90.50;;;;;;5037633;28;20041;-69
2023/06/08 05:52:20;;;;;;;18.38;9.68;;;20.00;90.30;;;;;;5042762;28;20029;-74
2023/06/08 05:54:46;;;;;;;19.75;9.82;;;20.20;90.60;;;;;;5045460;28;20040;-71
2023/06/08 05:57:12;;;;;;;16.73;9.68;;;20.20;90.40;;;;;;5035545;28;20029;-72
2023/06/08 05:59:38;;;;;;;18.98;10.50;;;20.30;90.40;;;;;;5039360;28;20032;-71
2023/06/08 06:02:04;;;;;;;24.85;9.60;;;20.40;89.90;;;;;;5034850;28;20032;-74
2023/06/08 06:04:30;;;;;;;17.55;9.45;;;20.40;90.10;;;;;;5047098;28;20021;-80
2023/06/08 06:06:55;;;;;;;16.00;9.40;;;20.50;89.90;;;;;;5046112;28;20098;-71
2023/06/08 06:09:21;;;;;;;15.77;9.35;;;20.50;90.10;;;;;;5042431;28;20013;-69
2023/06/08 06:11:47;;;;;;;15.07;9.52;;;20.60;90.20;;;;;;5041040;28;20116;-68
2023/06/08 06:14:13;;;;;;;19.20;10.23;;;20.70;90.00;;;;;;5038345;28;20064;-68
2023/06/08 06:16:39;;;;;;;17.52;9.20;;;20.70;89.40;;;;;;5041736;28;20363;-71
2023/06/08 06:19:04;;;;;;;18.58;10.30;;;20.80;89.90;;;;;;5037992;28;20356;-71
2023/06/08 06:21:30;;;;;;;14.80;8.80;;;20.90;89.00;;;;;;5043208;28;20108;-71
2023/06/08 06:23:56;;;;;;;16.00;9.40;;;20.90;89.10;;;;;;5031492;28;20033;-71
2023/06/08 06:26:21;;;;;;;18.35;9.98;;;21.00;88.90;;;;;;5031961;28;20137;-71
2023/06/08 06:28:47;;;;;;;17.88;9.98;;;21.00;88.80;;;;;;5032860;28;20093;-71
2023/06/08 06:31:12;;;;;;;15.82;9.02;;;21.20;88.60;;;;;;5041860;28;20048;-71
2023/06/08 06:33:38;;;;;;;15.23;9.43;;;21.20;87.90;;;;;;5046311;28;20479;-71
2023/06/08 06:36:03;;;;;;;15.88;9.00;;;21.20;87.20;;;;;;5050413;28;20396;-72
2023/06/08 06:38:29;;;;;;;15.90;9.20;;;21.30;87.30;;;;;;5034495;28;20031;-71
2023/06/08 06:40:55;;;;;;;15.90;9.60;;;21.30;87.40;;;;;;5038744;28;20021;-75
2023/06/08 06:43:21;;;;;;;11.27;8.82;;;21.40;87.00;;;;;;5040624;28;20030;-72
2023/06/08 06:45:50;;;;;;;12.98;8.80;;;21.40;85.90;;;;;;5038410;28;20118;-72
2023/06/08 06:48:20;;;;;;;15.60;9.73;;;21.50;85.70;;;;;;5032957;28;20033;-72
2023/06/08 06:50:47;;;;;;;16.83;8.70;;;21.50;85.50;;;;;;5035483;28;20033;-70
2023/06/08 06:53:13;;;;;;;18.08;9.70;;;21.50;85.50;;;;;;5036373;28;20037;-72
2023/06/08 06:55:38;;;;;;;15.23;8.95;;;21.60;85.40;;;;;;5050185;28;20025;-72
2023/06/08 06:58:05;;;;;;;19.23;9.30;;;21.70;84.90;;;;;;5038667;28;20083;-79
2023/06/08 07:00:37;;;;;;;16.45;8.90;;;21.70;84.80;;;;;;5031932;28;20020;-80
2023/06/08 07:03:06;;;;;;;15.45;8.55;;;21.80;84.60;;;;;;5043135;28;20032;-71
2023/06/08 07:05:36;;;;;;;13.68;8.75;;;21.80;84.70;;;;;;5032416;28;20075;-77
2023/06/08 07:08:02;;;;;;;15.82;8.32;;;21.80;84.40;;;;;;5032888;28;20040;-81
2023/06/08 07:10:29;;;;;;;20.33;9.43;;;21.90;84.60;;;;;;5034321;28;20041;-72
2023/06/08 07:12:56;;;;;;;13.48;8.52;;;22.00;83.90;;;;;;5035421;28;20021;-76
2023/06/08 07:15:22;;;;;;;14.52;7.70;;;22.00;84.10;;;;;;5035458;28;20112;-76
2023/06/08 07:17:47;;;;;;;17.55;8.60;;;21.90;84.80;;;;;;5037440;28;20100;-72
2023/06/08 07:20:13;;;;;;;13.60;8.10;;;21.90;84.80;;;;;;5032379;28;20072;-72
2023/06/08 07:22:39;;;;;;;18.25;9.30;;;21.90;84.70;;;;;;5034058;28;20036;-72
2023/06/08 07:25:05;;;;;;;12.68;8.50;;;21.90;84.60;;;;;;5031904;28;20021;-78
2023/06/08 07:27:31;;;;;;;17.75;8.80;;;22.00;84.40;;;;;;5034201;28;20023;-72
2023/06/08 07:29:57;;;;;;;15.57;9.10;;;22.10;83.40;;;;;;5041340;28;20045;-72
2023/06/08 07:32:22;;;;;;;15.02;8.40;;;22.20;83.20;;;;;;5036113;28;20088;-73
2023/06/08 07:34:48;;;;;;;13.52;8.60;;;22.20;83.10;;;;;;5033262;28;20032;-71
2023/06/08 07:37:14;;;;;;;16.40;8.32;;;22.20;83.40;;;;;;5032201;28;20021;-70
2023/06/08 07:39:39;;;;;;;15.20;9.18;;;22.30;83.30;;;;;;5041036;28;20032;-70
2023/06/08 07:42:05;;;;;;;14.82;8.18;;;22.30;83.20;;;;;;5040613;28;20029;-78
2023/06/08 07:44:31;;;;;;;15.63;9.18;;;22.30;83.40;;;;;;5038217;28;20017;-72
2023/06/08 07:46:57;;;;;;;12.32;8.13;;;22.40;82.90;;;;;;5035510;28;20028;-70
2023/06/08 07:49:23;;;;;;;14.85;8.30;;;22.40;83.40;;;;;;5039531;28;20018;-70
2023/06/08 07:51:50;;;;;;;12.98;8.07;;;22.40;83.40;;;;;;5041244;28;20033;-74
2023/06/08 07:54:19;;;;;;;16.63;8.20;;;22.40;83.40;;;;;;5053921;28;20119;-73
2023/06/08 07:56:48;;;;;;;13.57;7.97;;;22.40;83.90;;;;;;5035618;28;20028;-70
2023/06/08 07:59:15;;;;;;;14.77;8.00;;;22.50;83.90;;;;;;5042153;28;20063;-70
2023/06/08 08:01:42;;;;;;;13.73;7.13;;;22.50;83.20;;;;;;5042163;28;20032;-70
2023/06/08 08:04:08;;;;;;;16.77;7.47;;;22.60;83.00;;;;;;5043794;28;20109;-72
2023/06/08 08:06:33;;;;;;;14.10;6.47;;;22.60;83.10;;;;;;5034984;28;20100;-76
2023/06/08 08:08:59;;;;;;;15.90;6.47;;;22.60;83.60;;;;;;5045166;28;20028;-71
2023/06/08 08:11:26;;;;;;;14.07;5.75;;;22.60;84.20;;;;;;5042489;28;20041;-73
2023/06/08 08:13:52;;;;;;;15.25;6.63;;;22.50;84.70;;;;;;5042480;28;20104;-73
2023/06/08 08:16:18;;;;;;;14.18;6.63;;;22.50;85.20;;;;;;5042941;28;20112;-73
2023/06/08 08:18:44;;;;;;;12.40;7.35;;;22.50;85.60;;;;;;5040503;28;20079;-74
2023/06/08 08:21:10;;;;;;;17.75;6.72;;;22.50;85.20;;;;;;5038295;28;20033;-74
2023/06/08 08:23:36;;;;;;;13.48;7.28;;;22.50;85.30;;;;;;5038044;28;20501;-73
2023/06/08 08:26:02;;;;;;;11.23;7.00;;;22.50;85.10;;;;;;5046164;28;20087;-74
2023/06/08 08:28:28;;;;;;;15.18;7.35;;;22.50;85.20;;;;;;5045228;28;20029;-73
2023/06/08 08:30:54;;;;;;;11.52;7.40;;;22.60;84.90;;;;;;5039880;28;20079;-67
2023/06/08 08:33:19;;;;;;;15.93;8.48;;;22.60;84.40;;;;;;5046457;28;20029;-69
2023/06/08 08:35:45;;;;;;;15.02;6.35;;;22.70;84.20;;;;;;5046151;28;20029;-70
2023/06/08 08:38:11;;;;;;;14.57;6.60;;;22.70;84.30;;;;;;5045540;28;20056;-71
2023/06/08 08:40:37;;;;;;;46.22;10.30;;;22.70;84.70;;;;;;5043672;28;20052;-71
2023/06/08 08:43:08;;;;;;;27.60;8.38;;;22.70;84.60;;;;;;5042447;28;20053;-70
2023/06/08 08:45:34;;;;;;;31.80;7.77;;;22.70;84.30;;;;;;5049456;28;20025;-71
2023/06/08 08:48:01;;;;;;;23.75;8.70;;;22.80;84.30;;;;;;5050396;28;20791;-71
2023/06/08 08:50:33;;;;;;;17.38;8.88;;;22.80;84.40;;;;;;5053629;28;20029;-69
2023/06/08 08:53:00;;;;;;;17.92;9.32;;;22.90;83.70;;;;;;5050031;28;20029;-70
2023/06/08 08:55:33;;;;;;;17.23;8.52;;;22.90;83.30;;;;;;5042263;28;20093;-69
2023/06/08 08:58:03;;;;;;;15.43;7.53;;;22.90;83.80;;;;;;5062772;28;20021;-71
2023/06/08 09:00:33;;;;;;;12.00;7.53;;;23.00;84.20;;;;;;5040732;28;20030;-69
2023/06/08 09:03:00;;;;;;;18.50;8.50;;;23.00;84.20;;;;;;5048660;28;20029;-70
2023/06/08 09:05:26;;;;;;;18.10;9.10;;;23.00;84.00;;;;;;5050169;28;20397;-70
2023/06/08 09:07:55;;;;;;;17.13;9.68;;;23.00;83.60;;;;;;5052380;28;20515;-66
2023/06/08 09:10:25;;;;;;;19.08;9.23;;;23.10;83.10;;;;;;5049550;28;20408;-67
2023/06/08 09:12:52;;;;;;;19.08;9.98;;;23.20;83.10;;;;;;5044872;28;20029;-71
2023/06/08 09:15:33;;;;;;;15.75;9.38;;;23.20;82.80;;;;;;5048482;28;20070;-69
2023/06/08 09:18:02;;;;;;;19.73;9.65;;;23.30;82.80;;;;;;5051784;28;20041;-79
2023/06/08 09:20:31;;;;;;;17.35;8.68;;;23.20;83.10;;;;;;5041066;28;20116;-74
2023/06/08 09:22:57;;;;;;;19.23;8.75;;;23.20;83.30;;;;;;5047070;28;20014;-75
2023/06/08 09:25:37;;;;;;;20.00;11.20;;;23.20;83.40;;;;;;5034238;28;20033;-72
2023/06/08 09:28:15;;;;;;;18.77;8.95;;;23.30;82.60;;;;;;5046781;28;20036;-69
2023/06/08 09:30:46;;;;;;;20.10;10.95;;;23.30;84.20;;;;;;5040911;28;20041;-70
2023/06/08 09:33:23;;;;;;;23.25;9.25;;;23.30;83.80;;;;;;5042333;28;20169;-72
2023/06/08 09:35:58;;;;;;;16.60;8.38;;;23.30;88.40;;;;;;5049712;28;20158;-72
2023/06/08 09:50:58;;;;;;;15.30;10.63;;;23.20;86.20;;;;;;5127711;27;20406;-68
2023/06/08 09:53:25;;;;;;;13.18;11.32;;;23.70;83.00;;;;;;5106617;28;20030;-69
2023/06/08 09:55:53;;;;;;;18.88;9.77;;;23.60;83.70;;;;;;5098487;28;20476;-68
2023/06/08 09:58:25;;;;;;;15.27;11.63;;;23.50;84.90;;;;;;5097752;28;20036;-67
2023/06/08 10:00:56;;;;;;;15.38;10.25;;;23.50;83.70;;;;;;5091694;28;20054;-67
2023/06/08 10:03:30;;;;;;;16.90;10.90;;;23.50;85.90;;;;;;5096170;28;20024;-67
2023/06/08 10:05:58;;;;;;;16.00;11.15;;;23.50;84.00;;;;;;5103439;28;20023;-67
2023/06/08 10:08:27;;;;;;;16.42;9.80;;;23.50;83.80;;;;;;5093137;28;20032;-67
2023/06/08 10:10:54;;;;;;;13.00;9.82;;;23.40;84.10;;;;;;5090372;28;20095;-67
2023/06/08 10:13:21;;;;;;;16.92;9.38;;;23.40;84.20;;;;;;5107640;28;20035;-67
2023/06/08 10:15:47;;;;;;;17.20;9.32;;;23.40;84.30;;;;;;5106990;28;20363;-66
2023/06/08 10:18:14;;;;;;;17.77;11.77;;;23.40;84.40;;;;;;5102864;28;20437;-66
2023/06/08 10:20:40;;;;;;;16.02;9.90;;;23.40;83.90;;;;;;5101917;28;20504;-67
2023/06/08 10:23:06;;;;;;;15.20;10.38;;;23.40;84.20;;;;;;5092728;28;20058;-63
2023/06/08 10:25:34;;;;;;;13.25;8.82;;;23.40;84.10;;;;;;5098989;28;20028;-66
2023/06/08 10:28:05;;;;;;;17.88;9.43;;;23.40;84.40;;;;;;5098315;28;20032;-65
2023/06/08 10:30:39;;;;;;;14.48;8.07;;;23.30;84.70;;;;;;5097342;28;20066;-65
2023/06/08 10:33:10;;;;;;;28.30;11.48;;;23.30;84.90;;;;;;5104833;28;20027;-66
2023/06/08 10:35:37;;;;;;;20.73;11.67;;;23.30;85.20;;;;;;5098418;28;20023;-65
2023/06/08 10:38:13;;;;;;;30.65;10.32;;;23.40;84.60;;;;;;5091434;28;20035;-63
2023/06/08 10:40:47;;;;;;;23.08;11.55;;;23.40;84.80;;;;;;5103938;28;20070;-64
2023/06/08 10:43:13;;;;;;;16.92;11.05;;;23.40;84.20;;;;;;5104110;28;20026;-64
2023/06/08 10:45:43;;;;;;;19.00;12.55;;;23.40;84.00;;;;;;5088834;28;20392;-65
2023/06/08 10:48:10;;;;;;;15.52;11.23;;;23.50;83.40;;;;;;5076597;28;20538;-65
2023/06/08 10:50:41;;;;;;;18.40;9.98;;;23.50;83.40;;;;;;5010632;28;20030;-66
2023/06/08 10:53:07;;;;;;;12.00;9.50;;;23.50;83.40;;;;;;4996377;28;20071;-65
2023/06/08 10:55:33;;;;;;;15.65;8.30;;;23.50;83.60;;;;;;4990202;28;20425;-67
2023/06/08 10:58:06;;;;;;;10.02;8.43;;;23.40;83.20;;;;;;4987928;28;20029;-65
2023/06/08 11:00:33;;;;;;;16.10;9.75;;;23.50;83.10;;;;;;4982949;28;20113;-66
2023/06/08 11:03:06;;;;;;;15.52;8.57;;;23.50;83.20;;;;;;4994760;28;20026;-67
2023/06/08 11:05:36;;;;;;;11.63;10.10;;;23.50;83.40;;;;;;4989205;28;20501;-66
2023/06/08 11:08:03;;;;;;;20.10;9.75;;;23.60;82.90;;;;;;4990005;28;20018;-66
2023/06/08 11:10:32;;;;;;;18.77;9.45;;;23.60;83.20;;;;;;4988460;28;20023;-66
2023/06/08 11:13:16;;;;;;;14.68;8.32;;;23.50;83.50;;;;;;4988881;28;20033;-66
2023/06/08 11:15:44;;;;;;;17.70;10.15;;;23.50;83.80;;;;;;4987779;28;20037;-66
2023/06/08 11:18:10;;;;;;;16.33;11.55;;;23.60;83.40;;;;;;4985710;28;20291;-66
2023/06/08 11:20:37;;;;;;;13.38;10.75;;;23.60;83.20;;;;;;4992354;28;20034;-66
2023/06/08 11:23:10;;;;;;;18.73;9.02;;;23.60;83.40;;;;;;4993189;28;20018;-66
2023/06/08 11:25:36;;;;;;;15.75;9.27;;;23.70;83.90;;;;;;4992056;28;20101;-66
2023/06/08 11:28:03;;;;;;;14.32;9.68;;;23.60;84.00;;;;;;4991553;28;20075;-66
2023/06/08 11:30:31;;;;;;;13.20;9.55;;;23.60;83.90;;;;;;4992084;28;20034;-66
2023/06/08 11:32:58;;;;;;;16.58;8.10;;;23.70;83.60;;;;;;4995752;28;20593;-66
2023/06/08 11:35:24;;;;;;;13.75;8.00;;;23.70;83.60;;;;;;4996995;28;20022;-66
2023/06/08 11:37:55;;;;;;;9.80;7.13;;;23.70;83.50;;;;;;5000684;28;20026;-66
2023/06/08 11:40:21;;;;;;;14.52;8.82;;;23.70;83.50;;;;;;4991782;28;20478;-66
2023/06/08 11:42:47;;;;;;;14.13;9.90;;;23.70;83.10;;;;;;4995143;28;20033;-66
2023/06/08 11:45:14;;;;;;;10.18;8.32;;;23.70;82.40;;;;;;4995690;28;20025;-66
2023/06/08 11:47:44;;;;;;;12.15;7.47;;;23.80;82.60;;;;;;4991030;28;20048;-66
2023/06/08 11:50:11;;;;;;;12.77;7.80;;;23.70;82.50;;;;;;5000603;28;20033;-66
2023/06/08 11:52:44;;;;;;;17.13;7.28;;;23.80;82.30;;;;;;4994015;28;20029;-66
2023/06/08 11:55:12;;;;;;;12.15;8.05;;;23.70;83.80;;;;;;4990796;28;20034;-66
2023/06/08 11:57:40;;;;;;;7.28;6.47;;;23.80;82.50;;;;;;4996337;28;20010;-66
2023/06/08 12:00:14;;;;;;;13.18;7.15;;;23.80;82.80;;;;;;4997900;28;20052;-66
2023/06/08 12:02:40;;;;;;;10.57;7.00;;;23.80;82.60;;;;;;4979369;28;20033;-66
2023/06/08 12:05:13;;;;;;;8.40;6.85;;;23.80;82.20;;;;;;4991731;28;20482;-66
2023/06/08 12:07:38;;;;;;;13.10;7.72;;;23.80;82.00;;;;;;5000677;28;20497;-65
2023/06/08 12:10:05;;;;;;;8.73;5.65;;;23.90;80.50;;;;;;5010778;28;20576;-66
2023/06/08 12:12:32;;;;;;;10.75;6.07;;;23.90;80.90;;;;;;4993016;28;20030;-66
2023/06/08 12:14:58;;;;;;;8.90;6.30;;;23.90;80.80;;;;;;4991709;28;20025;-66
2023/06/08 12:17:28;;;;;;;7.90;5.97;;;23.90;82.30;;;;;;4992923;28;20026;-66
2023/06/08 12:19:54;;;;;;;11.05;7.38;;;23.90;82.20;;;;;;5003708;28;20049;-66
2023/06/08 12:22:20;;;;;;;8.68;6.40;;;23.90;80.80;;;;;;5010086;28;20378;-66
2023/06/08 12:24:46;;;;;;;6.93;6.22;;;23.90;81.10;;;;;;5000112;28;20513;-65
2023/06/08 12:27:12;;;;;;;11.82;6.25;;;23.90;81.70;;;;;;5006339;28;20015;-66
2023/06/08 12:29:38;;;;;;;9.38;7.55;;;23.90;81.60;;;;;;4999794;28;20364;-66
2023/06/08 12:32:05;;;;;;;8.60;6.57;;;23.90;81.10;;;;;;4999139;28;20083;-66
2023/06/08 12:34:32;;;;;;;12.65;6.50;;;23.90;82.00;;;;;;5009075;28;20026;-66
2023/06/08 12:36:58;;;;;;;11.98;6.97;;;23.90;81.60;;;;;;5009766;28;20026;-66
2023/06/08 12:39:23;;;;;;;10.00;6.43;;;24.00;81.80;;;;;;4998554;28;20061;-66
2023/06/08 12:41:49;;;;;;;12.25;7.45;;;23.90;82.20;;;;;;4995718;28;20498;-66
2023/06/08 12:44:16;;;;;;;10.23;6.28;;;24.00;82.10;;;;;;4982970;28;20035;-66
2023/06/08 12:46:41;;;;;;;9.85;6.28;;;23.90;81.90;;;;;;4990327;28;20034;-66
2023/06/08 12:49:07;;;;;;;7.50;6.30;;;24.00;82.50;;;;;;4990791;28;20034;-66